Time;durP1;ratioP1;P1;durP2;ratioP2;P2;SDS_P1;SDS_P2;PMS_P1;PMS_P2;Temp;Humidity;BMP_temperature;BMP_pressure;BME280_temperature;BME280_humidity;BME280_pressure;Samples;Min_cycle;Max_cycle;Signal;HPM_P1;HPM_P2
2021/07/12 00:04:17;;;;;;;8.07;7.28;;;22.30;71.80;;;;;;20918494;28;20059;-20
2021/07/12 00:14:18;;;;;;;8.07;7.28;;;22.30;71.80;;;;;;20925600;28;20051;-20
2021/07/12 00:24:20;;;;;;;8.68;7.00;;;22.20;71.60;;;;;;20923795;28;20061;-20
2021/07/12 00:34:21;;;;;;;6.28;5.68;;;22.20;71.60;;;;;;20932224;28;20506;-20
2021/07/12 00:44:22;;;;;;;7.33;6.63;;;22.20;71.30;;;;;;20935986;28;20139;-20
2021/07/12 00:54:27;;;;;;;7.28;6.00;;;22.20;71.40;;;;;;20923926;28;20467;-20
2021/07/12 01:04:28;;;;;;;7.15;6.55;;;22.20;71.20;;;;;;20926507;28;20108;-20
2021/07/12 01:14:55;;;;;;;6.88;6.18;;;22.20;71.10;;;;;;20922153;28;20074;-21
2021/07/12 01:25:31;;;;;;;6.40;5.75;;;22.10;70.90;;;;;;20908563;28;20032;-20
2021/07/12 01:35:54;;;;;;;13.40;6.35;;;22.10;70.70;;;;;;20908368;28;20032;-20
2021/07/12 01:46:21;;;;;;;6.45;5.85;;;22.10;70.60;;;;;;20934414;28;20061;-20
2021/07/12 01:56:38;;;;;;;4.78;4.30;;;22.10;70.50;;;;;;20917306;28;20101;-21
2021/07/12 02:06:41;;;;;;;5.25;4.75;;;22.10;70.30;;;;;;20903164;28;20037;-21
2021/07/12 02:16:43;;;;;;;4.78;4.30;;;22.00;70.10;;;;;;20919372;28;20036;-21
2021/07/12 02:26:45;;;;;;;7.25;4.93;;;22.00;70.00;;;;;;20943392;28;20032;-20
2021/07/12 02:36:48;;;;;;;6.57;4.43;;;22.00;69.70;;;;;;20945082;28;20527;-20
2021/07/12 02:46:48;;;;;;;5.50;4.85;;;22.00;69.60;;;;;;20945130;28;20510;-20
2021/07/12 02:56:49;;;;;;;4.07;3.67;;;22.00;69.50;;;;;;20917577;28;20056;-20
2021/07/12 03:06:52;;;;;;;5.20;4.70;;;22.00;69.20;;;;;;20939107;28;20111;-20
2021/07/12 03:16:54;;;;;;;4.97;4.47;;;21.90;68.90;;;;;;20929547;28;20399;-21
2021/07/12 03:26:57;;;;;;;11.32;4.85;;;21.90;68.60;;;;;;20931039;28;20072;-20
2021/07/12 03:36:59;;;;;;;4.05;3.65;;;21.90;68.40;;;;;;20934811;28;20029;-21
2021/07/12 03:47:00;;;;;;;4.10;3.17;;;21.90;68.40;;;;;;20937901;28;20037;-21
2021/07/12 03:57:01;;;;;;;6.15;4.60;;;21.90;68.30;;;;;;20940507;28;20036;-19
2021/07/12 04:07:02;;;;;;;6.93;3.17;;;21.80;68.10;;;;;;20939124;28;20033;-19
2021/07/12 04:17:02;;;;;;;6.35;3.35;;;21.80;68.00;;;;;;20923877;28;20084;-20
2021/07/12 04:27:03;;;;;;;6.00;3.37;;;21.80;68.00;;;;;;20896167;28;20060;-19
2021/07/12 04:37:04;;;;;;;4.55;2.88;;;21.80;67.90;;;;;;20882131;28;20038;-19
2021/07/12 04:47:05;;;;;;;4.80;3.03;;;21.80;68.00;;;;;;20861152;28;20515;-20
2021/07/12 04:57:05;;;;;;;4.53;3.17;;;21.80;68.10;;;;;;20872244;28;20587;-19
2021/07/12 05:07:07;;;;;;;6.03;3.53;;;21.80;68.10;;;;;;20906741;28;20394;-19
2021/07/12 05:17:11;;;;;;;3.58;3.03;;;21.80;68.30;;;;;;20905025;28;20115;-19
2021/07/12 05:27:11;;;;;;;17.38;4.75;;;21.80;68.40;;;;;;20912637;28;20055;-20
2021/07/12 05:37:12;;;;;;;7.78;3.20;;;21.90;68.30;;;;;;20927354;28;20033;-20
2021/07/12 05:47:12;;;;;;;10.35;4.28;;;21.90;68.40;;;;;;20896203;28;20055;-20
2021/07/12 05:57:13;;;;;;;7.63;3.95;;;22.00;68.50;;;;;;20921984;28;20044;-20
2021/07/12 06:07:13;;;;;;;13.73;5.78;;;22.00;68.50;;;;;;20921176;28;20029;-19
2021/07/12 06:17:14;;;;;;;12.63;5.93;;;22.00;68.70;;;;;;20930327;28;20041;-19
2021/07/12 06:27:16;;;;;;;8.57;4.13;;;22.10;68.70;;;;;;20951819;28;20024;-19
2021/07/12 06:37:17;;;;;;;7.35;3.92;;;22.10;68.80;;;;;;20953491;28;20475;-20
2021/07/12 06:47:17;;;;;;;6.22;4.10;;;22.10;68.80;;;;;;20956368;28;20097;-20
2021/07/12 06:57:18;;;;;;;8.57;4.57;;;22.10;69.30;;;;;;20954285;28;20029;-20
2021/07/12 07:07:18;;;;;;;8.70;3.08;;;22.10;68.90;;;;;;20933491;28;20033;-20
2021/07/12 07:17:19;;;;;;;7.25;3.00;;;22.10;69.40;;;;;;20927257;28;20530;-20
2021/07/12 07:27:20;;;;;;;4.88;2.80;;;22.10;69.10;;;;;;20931808;28;20669;-21
2021/07/12 07:37:20;;;;;;;7.90;2.55;;;22.10;69.20;;;;;;20933589;28;20032;-19
2021/07/12 07:47:22;;;;;;;5.43;2.40;;;22.10;69.20;;;;;;20936267;28;20045;-20
2021/07/12 07:57:22;;;;;;;4.72;3.28;;;22.10;69.30;;;;;;20937536;28;20029;-20
2021/07/12 08:07:23;;;;;;;2.80;2.53;;;22.10;69.20;;;;;;20939842;28;20159;-20
2021/07/12 08:17:23;;;;;;;3.72;2.95;;;22.10;69.40;;;;;;20914280;28;20067;-20
2021/07/12 08:27:24;;;;;;;3.17;2.88;;;22.30;69.50;;;;;;20922827;28;20041;-21
2021/07/12 08:37:25;;;;;;;4.93;2.78;;;22.30;69.50;;;;;;20899259;28;20021;-20
2021/07/12 08:47:26;;;;;;;4.60;2.85;;;22.30;69.50;;;;;;20901094;28;20499;-21
2021/07/12 08:57:29;;;;;;;5.35;2.60;;;22.30;69.30;;;;;;20890095;28;20520;-21
2021/07/12 09:07:32;;;;;;;4.30;2.95;;;22.30;69.80;;;;;;20870760;28;20025;-21
2021/07/12 09:17:35;;;;;;;3.25;2.53;;;22.40;70.00;;;;;;20890445;28;20037;-20
2021/07/12 09:27:38;;;;;;;4.25;3.08;;;22.40;70.10;;;;;;20887334;28;20388;-20
2021/07/12 09:37:42;;;;;;;5.80;3.70;;;22.40;70.20;;;;;;20904733;28;20064;-20
2021/07/12 09:47:44;;;;;;;6.88;2.92;;;22.50;70.70;;;;;;20927251;28;20099;-20
2021/07/12 09:57:45;;;;;;;5.05;3.15;;;22.50;70.60;;;;;;20939573;28;20032;-20
2021/07/12 10:07:46;;;;;;;11.77;3.50;;;22.50;70.90;;;;;;20908591;28;20025;-20
2021/07/12 10:17:47;;;;;;;4.50;3.60;;;22.50;71.00;;;;;;20909454;28;20547;-20
2021/07/12 10:27:55;;;;;;;4.75;3.70;;;22.50;71.00;;;;;;20929716;28;20025;-20
2021/07/12 10:37:59;;;;;;;4.63;3.58;;;22.60;71.10;;;;;;20934005;28;20095;-20
2021/07/12 10:48:04;;;;;;;5.45;4.20;;;22.60;71.20;;;;;;20912183;28;20458;-20
2021/07/12 10:58:26;;;;;;;5.72;4.65;;;22.60;71.50;;;;;;20931073;28;20048;-20
2021/07/12 11:08:48;;;;;;;5.32;3.67;;;22.60;71.70;;;;;;20934841;28;20119;-20
2021/07/12 11:18:51;;;;;;;5.30;4.68;;;22.70;72.00;;;;;;20940998;28;20111;-21
2021/07/12 11:28:54;;;;;;;5.82;3.92;;;22.60;72.30;;;;;;20894591;28;20103;-20
2021/07/12 11:38:55;;;;;;;5.60;4.38;;;22.60;72.40;;;;;;20884662;28;20037;-20
2021/07/12 11:49:04;;;;;;;4.85;4.35;;;22.70;72.10;;;;;;20927432;28;20114;-19
2021/07/12 11:59:05;;;;;;;5.90;5.03;;;22.70;72.20;;;;;;20939983;28;20036;-19
2021/07/12 12:09:11;;;;;;;5.88;4.80;;;22.70;71.10;;;;;;20932502;28;20423;-21
2021/07/12 12:19:12;;;;;;;5.57;4.63;;;22.70;70.80;;;;;;20939375;28;20059;-20
2021/07/12 12:29:18;;;;;;;12.98;5.60;;;22.70;71.00;;;;;;20932485;28;20028;-20
2021/07/12 12:39:21;;;;;;;5.47;4.97;;;22.70;71.10;;;;;;20929980;28;20024;-20
2021/07/12 12:49:21;;;;;;;7.63;5.72;;;22.70;71.40;;;;;;20923086;28;20419;-21
2021/07/12 12:59:29;;;;;;;10.30;6.07;;;22.70;71.30;;;;;;20929004;28;20036;-20
2021/07/12 13:09:34;;;;;;;;;;;22.70;71.30;;;;;;20935184;28;20466;-20
2021/07/12 13:19:35;;;;;;;7.10;6.40;;;22.70;70.90;;;;;;20886955;28;19916;-20
2021/07/12 13:29:36;;;;;;;7.80;7.00;;;22.70;71.30;;;;;;20887164;28;20056;-21
2021/07/12 13:39:36;;;;;;;7.30;6.60;;;22.70;70.60;;;;;;20881493;28;20033;-20
2021/07/12 13:49:38;;;;;;;8.70;7.00;;;22.70;71.30;;;;;;20935878;28;20029;-21
2021/07/12 13:59:41;;;;;;;7.30;6.28;;;22.80;70.80;;;;;;20881428;28;20033;-19
2021/07/12 14:09:43;;;;;;;7.40;6.70;;;22.80;71.00;;;;;;20907590;28;20100;-20
2021/07/12 14:19:44;;;;;;;6.78;5.70;;;22.80;70.40;;;;;;20940062;28;20079;-20
2021/07/12 14:29:45;;;;;;;7.35;6.50;;;22.80;70.80;;;;;;20935546;28;20086;-21
2021/07/12 14:39:46;;;;;;;8.52;5.72;;;22.80;70.50;;;;;;20940693;28;20086;-21
2021/07/12 14:49:46;;;;;;;6.30;5.53;;;22.80;70.40;;;;;;20944134;28;20094;-20
2021/07/12 14:59:47;;;;;;;8.38;6.70;;;22.80;70.80;;;;;;20948583;28;20392;-21
2021/07/12 15:09:47;;;;;;;6.15;5.63;;;22.80;70.90;;;;;;20950729;28;20483;-20
2021/07/12 15:19:48;;;;;;;6.47;5.88;;;22.90;70.50;;;;;;20938119;28;20064;-21
2021/07/12 15:29:49;;;;;;;6.18;5.57;;;22.90;70.20;;;;;;20930135;28;20032;-20
2021/07/12 15:39:49;;;;;;;7.13;6.05;;;22.90;70.60;;;;;;20903545;28;20036;-20
2021/07/12 15:49:52;;;;;;;6.18;5.57;;;22.90;70.10;;;;;;20920996;28;20045;-21
2021/07/12 15:59:52;;;;;;;8.38;5.55;;;22.90;70.10;;;;;;20943018;28;20032;-20
2021/07/12 16:09:53;;;;;;;5.60;5.10;;;22.90;69.40;;;;;;20935053;28;20040;-20
2021/07/12 16:19:54;;;;;;;6.72;6.10;;;22.90;71.00;;;;;;20932666;28;20037;-20
2021/07/12 16:29:54;;;;;;;6.28;5.78;;;22.90;71.70;;;;;;20924495;28;20707;-19
2021/07/12 16:39:56;;;;;;;6.22;5.63;;;23.00;71.60;;;;;;20930425;28;20498;-19
2021/07/12 16:49:57;;;;;;;7.35;6.75;;;22.90;71.60;;;;;;20935424;28;20033;-19
2021/07/12 16:59:57;;;;;;;5.95;5.45;;;23.00;71.60;;;;;;20938867;28;20131;-20
2021/07/12 17:09:58;;;;;;;6.40;5.80;;;23.00;71.10;;;;;;20888450;28;20112;-21
2021/07/12 17:19:59;;;;;;;6.68;5.97;;;23.00;71.10;;;;;;20889516;28;20033;-21
2021/07/12 17:29:59;;;;;;;7.75;6.13;;;23.00;70.20;;;;;;20894872;28;20120;-20
2021/07/12 17:40:00;;;;;;;10.30;6.93;;;23.00;71.10;;;;;;20920830;28;20068;-22
2021/07/12 17:50:03;;;;;;;14.32;6.88;;;22.90;71.40;;;;;;20982524;28;20039;-21
2021/07/12 18:00:06;;;;;;;7.60;6.80;;;23.00;71.20;;;;;;20963045;28;20558;-19
2021/07/12 18:10:08;;;;;;;14.98;6.95;;;23.00;71.70;;;;;;20904932;28;20075;-21
2021/07/12 18:20:13;;;;;;;13.68;7.78;;;23.00;72.40;;;;;;20949239;28;20033;-20
2021/07/12 18:30:14;;;;;;;13.13;7.70;;;22.90;72.70;;;;;;20941554;28;20037;-22
2021/07/12 18:40:15;;;;;;;10.23;7.30;;;22.90;72.60;;;;;;20955245;28;20036;-19
2021/07/12 18:50:17;;;;;;;11.18;7.20;;;22.90;72.60;;;;;;20937454;28;20033;-23
2021/07/12 19:00:24;;;;;;;15.23;8.65;;;22.80;72.70;;;;;;20960001;28;20032;-20
2021/07/12 19:10:26;;;;;;;15.00;7.05;;;22.80;72.80;;;;;;20948491;28;20035;-19
2021/07/12 19:20:29;;;;;;;14.15;7.55;;;22.80;72.80;;;;;;20948384;28;20075;-21
2021/07/12 19:30:31;;;;;;;15.07;7.95;;;22.80;73.50;;;;;;20937473;28;20520;-20
2021/07/12 19:40:34;;;;;;;27.33;10.23;;;22.80;74.00;;;;;;20946070;28;20564;-20
2021/07/12 19:50:35;;;;;;;20.13;8.10;;;22.90;74.40;;;;;;20971280;28;20028;-21
2021/07/12 20:00:37;;;;;;;18.25;7.90;;;22.90;74.20;;;;;;20947751;28;20029;-21
2021/07/12 20:10:40;;;;;;;14.23;7.60;;;22.90;74.40;;;;;;20950625;28;20029;-19
2021/07/12 20:20:42;;;;;;;14.70;8.45;;;22.90;74.10;;;;;;20937352;28;20576;-19
2021/07/12 20:30:44;;;;;;;10.90;6.75;;;22.90;74.30;;;;;;20947080;28;20020;-19
2021/07/12 20:40:44;;;;;;;10.43;7.63;;;22.90;74.30;;;;;;20933751;28;20028;-20
2021/07/12 20:50:45;;;;;;;8.13;6.90;;;22.90;74.30;;;;;;20864874;28;20027;-20
2021/07/12 21:00:46;;;;;;;10.75;7.22;;;22.90;74.20;;;;;;20845784;28;20460;-19
2021/07/12 21:10:46;;;;;;;9.68;8.02;;;22.80;74.20;;;;;;20833190;28;20014;-19
2021/07/12 21:20:47;;;;;;;10.90;7.07;;;22.90;74.10;;;;;;20879473;28;20404;-20
2021/07/12 21:30:48;;;;;;;13.40;6.90;;;22.80;74.00;;;;;;20935597;28;20474;-19
2021/07/12 21:40:49;;;;;;;7.55;6.80;;;22.70;74.20;;;;;;20941084;28;20050;-20
2021/07/12 21:50:50;;;;;;;10.20;7.97;;;22.70;74.20;;;;;;20873510;28;20100;-19
2021/07/12 22:00:50;;;;;;;8.63;7.10;;;22.70;74.50;;;;;;20939646;28;20029;-19
2021/07/12 22:10:58;;;;;;;10.07;7.97;;;22.70;74.40;;;;;;20931529;28;20033;-19
2021/07/12 22:20:59;;;;;;;8.37;7.57;;;22.70;74.80;;;;;;20934272;28;20113;-19
2021/07/12 22:31:00;;;;;;;13.40;7.32;;;22.70;74.60;;;;;;20930323;28;20056;-19
2021/07/12 22:41:00;;;;;;;7.67;6.90;;;22.60;74.80;;;;;;20921689;28;20036;-19
2021/07/12 22:51:03;;;;;;;7.82;6.78;;;22.70;74.90;;;;;;20955774;28;21218;-20
2021/07/12 23:01:05;;;;;;;8.80;8.00;;;22.70;74.60;;;;;;20945456;28;20115;-20
2021/07/12 23:11:05;;;;;;;8.38;6.43;;;22.70;74.40;;;;;;20936805;28;20036;-20
2021/07/12 23:21:06;;;;;;;8.43;7.63;;;22.70;74.40;;;;;;20946357;28;20036;-20
2021/07/12 23:31:07;;;;;;;9.45;8.55;;;22.70;74.20;;;;;;20937655;28;20519;-20
2021/07/12 23:41:07;;;;;;;7.85;7.15;;;22.70;74.50;;;;;;20934819;28;20063;-19
2021/07/12 23:51:08;;;;;;;8.43;7.60;;;22.70;74.30;;;;;;20941397;28;20067;-19
